createdAt,value
2022-12-23T00:01:00.285Z,84.06
2022-12-23T00:06:01.532Z,83.51
2022-12-23T00:11:02.920Z,83.65
2022-12-23T00:16:04.305Z,85.34
2022-12-23T00:21:08.782Z,85.36
2022-12-23T00:26:10.583Z,85.92
2022-12-23T00:31:11.814Z,84.46
2022-12-23T00:36:13.365Z,83.92
2022-12-23T00:41:33.482Z,83.94
2022-12-23T00:46:34.738Z,84.26
2022-12-23T00:51:36.041Z,82.86
2022-12-23T00:56:37.401Z,82.65
2022-12-23T01:01:57.540Z,82.14
2022-12-23T01:06:58.911Z,82.63
2022-12-23T01:12:00.206Z,82.26
2022-12-23T01:17:01.469Z,82.55
2022-12-23T01:22:03.078Z,82.92
2022-12-23T01:27:04.377Z,83.11
2022-12-23T01:32:05.722Z,82.82
2022-12-23T01:37:06.988Z,83.13
2022-12-23T01:42:27.032Z,83.47
2022-12-23T01:47:28.304Z,83.06
2022-12-23T01:52:29.563Z,84.25
2022-12-23T01:57:30.839Z,84.99
2022-12-23T02:02:51.135Z,84.83
2022-12-23T02:08:11.336Z,85.08
2022-12-23T02:13:12.629Z,84.52
2022-12-23T02:18:13.912Z,84.45
2022-12-23T02:23:15.211Z,83.63
2022-12-23T02:28:16.637Z,83.56
2022-12-23T02:33:17.871Z,84.17
2022-12-23T02:38:19.127Z,85.57
2022-12-23T02:43:20.401Z,84.61
2022-12-23T02:48:21.613Z,85.09
2022-12-23T02:53:22.879Z,84.15
2022-12-23T02:58:24.100Z,83.33
2022-12-23T03:03:25.369Z,82.90
2022-12-23T03:08:26.695Z,84.38
2022-12-23T03:13:27.916Z,86.30
2022-12-23T03:18:29.212Z,85.67
2022-12-23T03:23:30.471Z,84.70
2022-12-23T03:28:31.680Z,85.26
2022-12-23T03:33:32.964Z,84.97
2022-12-23T03:38:34.238Z,85.36
2022-12-23T03:43:35.515Z,84.87
2022-12-23T03:48:36.739Z,85.94
2022-12-23T03:53:38.003Z,86.17
2022-12-23T03:58:39.216Z,85.87
2022-12-23T04:03:40.526Z,85.23
2022-12-23T04:08:41.856Z,86.07
2022-12-23T04:13:43.099Z,85.91
2022-12-23T04:18:44.410Z,84.65
2022-12-23T04:23:45.680Z,84.95
2022-12-23T04:28:46.912Z,85.78
2022-12-23T04:33:48.144Z,85.72
2022-12-23T04:38:49.350Z,86.38
2022-12-23T04:43:52.948Z,85.41
2022-12-23T04:48:54.783Z,86.08
2022-12-23T04:53:56.016Z,87.27
2022-12-23T04:58:57.292Z,89.73
2022-12-23T05:03:58.637Z,89.15
2022-12-23T05:08:59.930Z,87.67
2022-12-23T05:14:01.216Z,89.08
2022-12-23T05:19:02.460Z,88.34
2022-12-23T05:24:03.934Z,86.87
2022-12-23T05:29:06.208Z,86.86
2022-12-23T05:34:07.598Z,86.66
2022-12-23T05:39:08.968Z,87.08
2022-12-23T05:44:10.186Z,86.53
2022-12-23T05:49:11.489Z,86.61
2022-12-23T05:54:12.751Z,86.73
2022-12-23T05:59:13.999Z,86.34
2022-12-23T06:04:17.196Z,86.63
2022-12-23T06:09:18.519Z,86.29
2022-12-23T06:14:25.154Z,85.51
2022-12-23T06:19:29.903Z,86.86
2022-12-23T06:24:31.159Z,86.05
2022-12-23T06:29:32.437Z,85.55
2022-12-23T06:34:33.669Z,85.31
2022-12-23T06:39:34.875Z,85.91
2022-12-23T06:44:36.095Z,85.82
2022-12-23T06:49:37.362Z,85.74
2022-12-23T06:54:38.585Z,85.73
2022-12-23T06:59:39.821Z,86.82
2022-12-23T07:04:41.062Z,91.28
2022-12-23T07:09:42.357Z,85.60
2022-12-23T07:14:43.699Z,84.94
2022-12-23T07:19:45.000Z,83.64
2022-12-23T07:24:46.214Z,85.73
2022-12-23T07:29:47.484Z,86.55
2022-12-23T07:34:48.747Z,86.97
2022-12-23T07:39:49.983Z,87.37
2022-12-23T07:44:51.229Z,87.41
2022-12-23T07:49:52.438Z,87.17
2022-12-23T07:54:53.695Z,87.33
2022-12-23T07:59:54.964Z,86.66
2022-12-23T08:04:57.273Z,87.17
2022-12-23T08:09:58.536Z,87.51
2022-12-23T08:14:59.777Z,90.19
2022-12-23T08:20:01.001Z,89.87
2022-12-23T08:25:02.276Z,90.15
2022-12-23T08:30:03.580Z,90.32
2022-12-23T08:35:04.807Z,88.98
2022-12-23T08:40:06.135Z,87.37
2022-12-23T08:45:07.391Z,87.74
2022-12-23T08:50:08.651Z,88.53
2022-12-23T08:55:09.863Z,88.19
2022-12-23T09:00:11.188Z,87.42
2022-12-23T09:05:12.426Z,88.11
2022-12-23T09:10:13.635Z,88.58
2022-12-23T09:15:14.903Z,90.52
2022-12-23T09:20:16.125Z,89.99
2022-12-23T09:25:17.471Z,91.71
2022-12-23T09:30:18.845Z,95.53
2022-12-23T09:35:20.255Z,97.57
2022-12-23T09:40:21.578Z,98.26
2022-12-23T09:45:22.827Z,97.35
2022-12-23T09:50:25.342Z,98.67
2022-12-23T09:55:26.607Z,99.31
2022-12-23T10:00:27.892Z,98.99
2022-12-23T10:05:29.277Z,98.84
2022-12-23T10:10:30.665Z,97.88
2022-12-23T10:15:32.023Z,97.08
2022-12-23T10:20:33.266Z,96.13
2022-12-23T10:25:34.537Z,95.56
2022-12-23T10:31:05.993Z,95.04
2022-12-23T10:35:57.862Z,94.58
2022-12-23T10:41:03.884Z,94.78
2022-12-23T10:46:10.325Z,95.03
2022-12-23T10:51:11.665Z,94.32
2022-12-23T10:56:12.914Z,94.69
2022-12-23T11:01:23.807Z,93.15
2022-12-23T11:06:31.582Z,92.89
2022-12-23T11:11:39.242Z,94.35
2022-12-23T11:16:40.697Z,96.47
2022-12-23T11:21:42.040Z,97.49
2022-12-23T11:26:44.517Z,97.64
2022-12-23T11:31:45.819Z,97.34
2022-12-23T11:36:52.981Z,96.39
2022-12-23T11:41:56.147Z,95.85
2022-12-23T11:46:57.464Z,95.33
2022-12-23T11:51:58.716Z,96.21
2022-12-23T11:57:00.090Z,95.81
2022-12-23T12:02:01.517Z,95.52
2022-12-23T12:07:02.935Z,95.52
2022-12-23T12:12:04.384Z,95.25
2022-12-23T12:17:05.702Z,95.99
2022-12-23T12:22:07.083Z,96.00
2022-12-23T12:27:08.417Z,95.27
2022-12-23T12:32:09.717Z,95.68
2022-12-23T12:37:10.981Z,95.50
2022-12-23T12:42:12.485Z,93.93
2022-12-23T12:47:36.043Z,92.38
2022-12-23T12:52:34.965Z,93.19
2022-12-23T12:57:38.687Z,91.95
2022-12-23T13:02:39.993Z,90.41
2022-12-23T13:07:41.423Z,89.87
2022-12-23T13:12:42.648Z,90.00
2022-12-23T13:17:44.262Z,89.95
2022-12-23T13:22:47.844Z,90.83
2022-12-23T13:27:49.263Z,91.20
2022-12-23T13:32:51.752Z,91.40
2022-12-23T13:37:53.811Z,89.80
2022-12-23T13:42:55.088Z,88.46
2022-12-23T13:48:01.129Z,87.65
2022-12-23T13:53:05.672Z,87.42
2022-12-23T13:58:06.944Z,86.87
2022-12-23T14:03:08.256Z,88.96
2022-12-23T14:08:09.500Z,88.16
2022-12-23T14:13:10.739Z,87.22
2022-12-23T14:18:11.986Z,87.56
2022-12-23T14:23:13.277Z,87.48
2022-12-23T14:28:14.531Z,88.25
2022-12-23T14:33:15.818Z,88.93
2022-12-23T14:38:17.036Z,88.08
2022-12-23T14:43:18.399Z,88.04
2022-12-23T14:48:19.649Z,87.86
2022-12-23T14:53:20.925Z,87.78
2022-12-23T14:58:22.284Z,90.49
2022-12-23T15:03:23.707Z,92.63
2022-12-23T15:08:25.076Z,91.82
2022-12-23T15:13:26.304Z,90.45
2022-12-23T15:18:28.441Z,89.63
2022-12-23T15:23:29.827Z,89.18
2022-12-23T15:28:31.039Z,88.54
2022-12-23T15:34:02.391Z,90.31
2022-12-23T15:38:56.517Z,89.98
2022-12-23T15:43:58.104Z,88.83
2022-12-23T15:48:59.399Z,89.33
2022-12-23T15:54:00.777Z,89.64
2022-12-23T15:59:02.061Z,89.71
2022-12-23T16:04:03.457Z,91.56
2022-12-23T16:09:04.843Z,94.16
2022-12-23T16:14:06.063Z,97.23
2022-12-23T16:19:07.297Z,98.81
2022-12-23T16:24:08.659Z,100.00
2022-12-23T16:29:10.009Z,100.00
2022-12-23T16:34:11.329Z,100.00
2022-12-23T16:39:12.607Z,100.00
2022-12-23T16:44:14.022Z,100.00
2022-12-23T16:49:15.308Z,100.00
2022-12-23T16:54:16.600Z,100.00
2022-12-23T16:59:18.198Z,100.00
2022-12-23T17:04:19.439Z,100.00
2022-12-23T17:09:21.149Z,100.00
2022-12-23T17:14:22.837Z,100.00
2022-12-23T17:19:28.985Z,100.00
2022-12-23T17:24:31.285Z,100.00
2022-12-23T17:29:32.565Z,100.00
2022-12-23T17:34:33.867Z,100.00
2022-12-23T17:39:35.109Z,100.00
2022-12-23T17:44:36.331Z,100.00
2022-12-23T17:49:37.532Z,100.00
2022-12-23T17:54:38.777Z,100.00
2022-12-23T17:59:40.055Z,100.00
2022-12-23T18:04:41.348Z,100.00
2022-12-23T18:09:42.687Z,100.00
2022-12-23T18:14:44.973Z,100.00
2022-12-23T18:19:46.261Z,98.64
2022-12-23T18:24:47.485Z,98.08
2022-12-23T18:29:48.865Z,98.61
2022-12-23T18:34:50.247Z,98.92
2022-12-23T18:39:51.523Z,99.53
2022-12-23T18:44:52.747Z,99.85
2022-12-23T18:49:53.988Z,99.16
2022-12-23T18:54:56.287Z,99.55
2022-12-23T18:59:57.563Z,99.84
2022-12-23T19:04:58.817Z,99.54
2022-12-23T19:10:00.097Z,99.59
2022-12-23T19:15:01.407Z,99.31
2022-12-23T19:20:02.705Z,98.91
2022-12-23T19:25:06.329Z,99.02
2022-12-23T19:30:08.171Z,99.41
2022-12-23T19:35:09.383Z,98.38
2022-12-23T19:40:10.674Z,98.45
2022-12-23T19:45:11.974Z,97.80
2022-12-23T19:50:13.331Z,97.43
2022-12-23T19:55:15.595Z,98.10
2022-12-23T20:00:16.925Z,97.36
2022-12-23T20:05:18.187Z,96.50
2022-12-23T20:10:19.501Z,94.56
2022-12-23T20:15:20.719Z,94.61
2022-12-23T20:20:21.956Z,94.33
2022-12-23T20:25:23.260Z,93.58
2022-12-23T20:30:24.502Z,92.03
2022-12-23T20:35:25.765Z,92.23
2022-12-23T20:40:27.007Z,91.39
2022-12-23T20:45:28.239Z,90.45
2022-12-23T20:50:29.473Z,90.21
2022-12-23T20:55:30.724Z,89.77
2022-12-23T21:00:31.941Z,89.78
2022-12-23T21:05:33.187Z,89.14
2022-12-23T21:10:35.749Z,88.50
2022-12-23T21:15:37.022Z,88.52
2022-12-23T21:20:38.305Z,87.90
2022-12-23T21:25:40.197Z,87.77
2022-12-23T21:30:41.480Z,87.39
2022-12-23T21:35:42.748Z,87.83
2022-12-23T21:40:44.016Z,87.68
2022-12-23T21:45:45.774Z,87.00
2022-12-23T21:50:47.198Z,87.60
2022-12-23T21:55:48.637Z,86.91
2022-12-23T22:00:51.136Z,86.83
2022-12-23T22:05:52.471Z,86.30
2022-12-23T22:10:53.707Z,86.16
2022-12-23T22:15:55.060Z,86.40
2022-12-23T22:20:56.394Z,88.22
2022-12-23T22:25:57.680Z,88.22
2022-12-23T22:30:58.963Z,87.44
2022-12-23T22:36:00.286Z,87.36
2022-12-23T22:41:01.579Z,87.45
2022-12-23T22:46:02.860Z,88.52
2022-12-23T22:51:04.364Z,89.48
2022-12-23T22:56:05.907Z,89.75
2022-12-23T23:01:07.630Z,89.73
2022-12-23T23:06:08.903Z,90.30
2022-12-23T23:11:10.520Z,90.35
2022-12-23T23:16:11.916Z,89.77
2022-12-23T23:21:13.271Z,88.39
2022-12-23T23:26:14.849Z,88.57
2022-12-23T23:36:40.985Z,86.68
2022-12-23T23:41:42.435Z,86.18
2022-12-23T23:46:43.851Z,84.97
2022-12-23T23:51:45.223Z,86.09
2022-12-23T23:56:46.521Z,85.15
